Terminal Aerodrome Forecast
Issued by NWS Goodland, KS

Home | Current Version | Previous Version | Text Only | Print | Product List | Glossary On
Versions: 1 2 3 4 5 6 7 8 9 10 11 12 13 14
000
FTUS43 KGLD 232100 AAA
TAFGLD
TAF AMD
KGLD 232128Z 2321/2418 04019G30KT P6SM SCT090
     FM240100 04020G30KT P6SM SCT070 BKN120
      TEMPO 2401/2402 6SM TSRA BKN070CB
     FM240200 35028G47KT 6SM BLDU SCT070
      TEMPO 2402/2403 6SM TSRA BKN070CB
     FM240700 34015KT P6SM SCT250=

USA.gov is the U.S. government's official web portal to all federal, state and local government web resources and services.